Time;durP1;ratioP1;P1;durP2;ratioP2;P2;SDS_P1;SDS_P2;PMS_P1;PMS_P2;Temp;Humidity;BMP_temperature;BMP_pressure;BME280_temperature;BME280_humidity;BME280_pressure;Samples;Min_cycle;Max_cycle;Signal;HPM_P1;HPM_P2
2023/10/22 00:01:46;;;;;;;6.53;1.40;;;;;;;;;;5058209;28;20123;-82
2023/10/22 00:04:12;;;;;;;10.23;1.70;;;;;;;;;;5038052;28;20037;-83
2023/10/22 00:06:38;;;;;;;7.60;1.50;;;;;;;;;;5061235;28;20101;-83
2023/10/22 00:09:04;;;;;;;6.88;1.20;;;;;;;;;;5062085;28;20120;-83
2023/10/22 00:11:30;;;;;;;4.90;1.15;;;;;;;;;;5054506;28;20053;-82
2023/10/22 00:13:56;;;;;;;7.38;1.40;;;;;;;;;;5031311;28;20046;-83
2023/10/22 00:16:22;;;;;;;8.77;1.33;;;;;;;;;;5030126;28;20417;-82
2023/10/22 00:18:48;;;;;;;7.20;1.48;;;;;;;;;;5055562;28;20129;-82
2023/10/22 00:21:14;;;;;;;7.72;1.48;;;;;;;;;;5052948;28;20045;-82
2023/10/22 00:23:40;;;;;;;8.00;1.33;;;;;;;;;;5054807;28;20044;-82
2023/10/22 00:26:12;;;;;;;9.45;1.40;;;;;;;;;;5044479;28;20041;-82
2023/10/22 00:28:38;;;;;;;7.28;1.30;;;;;;;;;;5057264;28;20076;-83
2023/10/22 00:31:04;;;;;;;8.70;1.50;;;;;;;;;;5063177;28;20053;-83
2023/10/22 00:33:30;;;;;;;9.73;1.40;;;;;;;;;;5063869;28;20055;-82
2023/10/22 00:35:58;;;;;;;6.88;1.58;;;;;;;;;;5053354;28;20052;-83
2023/10/22 00:38:24;;;;;;;5.97;1.25;;;;;;;;;;5055441;28;20045;-82
2023/10/22 00:40:50;;;;;;;8.40;1.20;;;;;;;;;;5045636;28;20096;-82
2023/10/22 00:43:16;;;;;;;8.93;1.55;;;;;;;;;;5059794;28;20136;-82
2023/10/22 00:45:43;;;;;;;9.07;1.25;;;;;;;;;;5033298;28;20053;-83
2023/10/22 00:48:09;;;;;;;7.88;1.40;;;;;;;;;;5057315;28;20113;-83
2023/10/22 00:50:39;;;;;;;8.77;1.40;;;;;;;;;;5055778;28;20041;-83
2023/10/22 00:53:05;;;;;;;7.70;1.10;;;;;;;;;;5066106;28;20049;-83
2023/10/22 00:55:32;;;;;;;10.43;1.30;;;;;;;;;;5044573;28;20064;-82
2023/10/22 00:57:58;;;;;;;6.68;1.02;;;;;;;;;;5027016;28;20045;-83
2023/10/22 01:00:27;;;;;;;8.50;1.20;;;;;;;;;;5046048;28;20046;-82
2023/10/22 01:02:53;;;;;;;7.55;1.30;;;;;;;;;;5046814;28;20034;-83
2023/10/22 01:05:19;;;;;;;7.88;1.20;;;;;;;;;;5058459;28;20041;-83
2023/10/22 01:07:47;;;;;;;7.68;1.40;;;;;;;;;;5046064;28;20045;-83
2023/10/22 01:10:13;;;;;;;4.85;1.10;;;;;;;;;;5048988;28;20064;-82
2023/10/22 01:12:39;;;;;;;10.35;1.60;;;;;;;;;;5048643;28;20117;-83
2023/10/22 01:15:06;;;;;;;6.85;1.08;;;;;;;;;;5039797;28;20545;-83
2023/10/22 01:17:32;;;;;;;7.25;1.45;;;;;;;;;;5052003;28;20045;-83
2023/10/22 01:19:58;;;;;;;8.10;1.50;;;;;;;;;;5054528;28;20037;-83
2023/10/22 01:22:25;;;;;;;6.15;1.02;;;;;;;;;;5057775;28;20044;-82
2023/10/22 01:24:51;;;;;;;6.47;1.40;;;;;;;;;;5047912;28;20045;-83
2023/10/22 01:27:17;;;;;;;9.02;1.50;;;;;;;;;;5045440;28;20049;-83
2023/10/22 01:29:43;;;;;;;6.10;1.17;;;;;;;;;;5051416;28;20049;-82
2023/10/22 01:32:09;;;;;;;8.80;1.00;;;;;;;;;;5046495;28;20048;-82
2023/10/22 01:34:36;;;;;;;8.25;1.20;;;;;;;;;;5055463;28;20045;-82
2023/10/22 01:37:02;;;;;;;6.47;1.38;;;;;;;;;;5058715;28;20048;-82
2023/10/22 01:39:28;;;;;;;4.43;1.05;;;;;;;;;;5047844;28;20052;-83
2023/10/22 01:41:54;;;;;;;7.03;1.40;;;;;;;;;;5045026;28;20128;-83
2023/10/22 01:44:20;;;;;;;6.57;1.15;;;;;;;;;;5053685;28;20045;-83
2023/10/22 01:46:46;;;;;;;6.65;1.17;;;;;;;;;;5044154;28;20067;-82
2023/10/22 01:49:12;;;;;;;9.77;1.42;;;;;;;;;;5059419;28;20041;-82
2023/10/22 01:51:38;;;;;;;5.82;0.90;;;;;;;;;;5047012;28;20046;-83
2023/10/22 01:54:06;;;;;;;8.65;1.17;;;;;;;;;;5057095;28;20045;-82
2023/10/22 01:56:32;;;;;;;7.20;1.10;;;;;;;;;;5062918;28;20508;-82
2023/10/22 01:58:59;;;;;;;8.90;1.30;;;;;;;;;;5061057;28;20053;-83
2023/10/22 02:01:26;;;;;;;7.30;1.40;;;;;;;;;;5045100;28;20528;-82
2023/10/22 02:03:52;;;;;;;9.13;1.42;;;;;;;;;;5062776;28;20091;-82
2023/10/22 02:06:18;;;;;;;3.92;0.98;;;;;;;;;;5053260;28;20065;-83
2023/10/22 02:08:46;;;;;;;7.72;1.40;;;;;;;;;;5050909;28;20041;-82
2023/10/22 02:11:12;;;;;;;5.22;0.93;;;;;;;;;;5053045;28;20041;-82
2023/10/22 02:13:38;;;;;;;5.15;0.90;;;;;;;;;;5034491;28;20049;-83
2023/10/22 02:16:04;;;;;;;6.63;1.08;;;;;;;;;;5039551;28;20048;-82
2023/10/22 02:18:30;;;;;;;4.90;0.90;;;;;;;;;;5062945;28;20049;-82
2023/10/22 02:21:02;;;;;;;4.90;1.45;;;;;;;;;;5042694;28;20045;-82
2023/10/22 02:23:28;;;;;;;6.70;1.30;;;;;;;;;;5063874;28;20072;-82
2023/10/22 02:25:55;;;;;;;7.43;1.55;;;;;;;;;;5051460;28;20121;-82
2023/10/22 02:28:21;;;;;;;6.93;1.02;;;;;;;;;;5058820;28;20056;-83
2023/10/22 02:30:47;;;;;;;5.07;1.00;;;;;;;;;;5035796;28;20076;-83
2023/10/22 02:33:13;;;;;;;6.00;1.13;;;;;;;;;;5048142;28;20045;-82
2023/10/22 02:35:43;;;;;;;4.78;0.90;;;;;;;;;;5042400;28;20048;-82
2023/10/22 02:38:10;;;;;;;5.07;1.02;;;;;;;;;;5047183;28;20037;-82
2023/10/22 02:40:36;;;;;;;4.38;0.90;;;;;;;;;;5047136;28;20053;-82
2023/10/22 02:43:03;;;;;;;7.82;1.15;;;;;;;;;;5045716;28;20061;-81
2023/10/22 02:45:29;;;;;;;5.60;1.17;;;;;;;;;;5050486;28;20041;-81
2023/10/22 02:47:57;;;;;;;6.28;1.33;;;;;;;;;;5059547;28;20394;-81
2023/10/22 02:50:24;;;;;;;6.45;1.00;;;;;;;;;;5046828;28;20494;-82
2023/10/22 02:52:50;;;;;;;5.80;1.10;;;;;;;;;;5047487;28;20081;-81
2023/10/22 02:55:17;;;;;;;3.80;1.00;;;;;;;;;;5011380;28;20065;-83
2023/10/22 02:57:43;;;;;;;4.07;1.00;;;;;;;;;;5045792;28;20045;-82
2023/10/22 03:00:13;;;;;;;7.47;1.25;;;;;;;;;;5042777;28;20124;-82
2023/10/22 03:02:42;;;;;;;6.28;1.40;;;;;;;;;;5050001;28;20703;-82
2023/10/22 03:05:08;;;;;;;6.75;1.23;;;;;;;;;;5062147;28;20482;-82
2023/10/22 03:07:34;;;;;;;5.15;0.93;;;;;;;;;;5058384;28;20053;-81
2023/10/22 03:10:00;;;;;;;4.75;0.90;;;;;;;;;;5035421;28;20041;-82
2023/10/22 03:12:26;;;;;;;3.88;1.10;;;;;;;;;;5055326;28;20049;-82
2023/10/22 03:14:53;;;;;;;3.92;0.90;;;;;;;;;;5045569;28;20041;-82
2023/10/22 03:17:19;;;;;;;5.13;1.27;;;;;;;;;;5057798;28;20048;-82
2023/10/22 03:19:46;;;;;;;8.18;1.05;;;;;;;;;;5049531;28;20032;-82
2023/10/22 03:22:13;;;;;;;7.85;1.10;;;;;;;;;;5066031;28;20041;-82
2023/10/22 03:24:39;;;;;;;6.43;1.25;;;;;;;;;;5066155;28;20048;-83
2023/10/22 03:27:05;;;;;;;4.50;0.90;;;;;;;;;;5061895;28;20054;-81
2023/10/22 03:29:32;;;;;;;5.00;0.98;;;;;;;;;;5046818;28;20045;-82
2023/10/22 03:31:58;;;;;;;6.47;0.90;;;;;;;;;;5055543;28;20046;-82
2023/10/22 03:34:24;;;;;;;6.53;0.90;;;;;;;;;;5072901;28;20052;-82
2023/10/22 03:36:51;;;;;;;4.97;1.00;;;;;;;;;;5055354;28;20414;-82
2023/10/22 03:39:19;;;;;;;3.35;0.70;;;;;;;;;;5061918;28;20041;-82
2023/10/22 03:41:45;;;;;;;4.90;1.20;;;;;;;;;;5057064;28;20044;-82
2023/10/22 03:44:11;;;;;;;4.72;0.80;;;;;;;;;;5057715;28;20041;-82
2023/10/22 03:46:38;;;;;;;6.15;1.05;;;;;;;;;;5050153;28;20049;-82
2023/10/22 03:49:07;;;;;;;5.55;1.00;;;;;;;;;;5047228;28;20045;-82
2023/10/22 03:51:33;;;;;;;5.30;0.95;;;;;;;;;;5064619;28;20052;-81
2023/10/22 03:54:00;;;;;;;3.95;0.90;;;;;;;;;;5037556;28;20060;-82
2023/10/22 03:56:26;;;;;;;5.43;0.82;;;;;;;;;;5059191;28;20056;-81
2023/10/22 03:58:52;;;;;;;4.88;1.08;;;;;;;;;;5051146;28;20049;-82
2023/10/22 04:01:18;;;;;;;6.18;1.00;;;;;;;;;;5063221;28;20040;-81
2023/10/22 04:03:44;;;;;;;5.13;1.10;;;;;;;;;;5058367;28;20074;-81
2023/10/22 04:06:10;;;;;;;5.65;0.82;;;;;;;;;;5050005;28;20052;-83
2023/10/22 04:08:36;;;;;;;5.32;0.90;;;;;;;;;;5035523;28;20128;-83
2023/10/22 04:11:04;;;;;;;4.22;0.90;;;;;;;;;;5057743;28;20060;-82
2023/10/22 04:13:30;;;;;;;5.10;0.98;;;;;;;;;;5063703;28;20076;-83
2023/10/22 04:15:56;;;;;;;5.40;1.38;;;;;;;;;;5056523;28;20048;-82
2023/10/22 04:18:23;;;;;;;4.25;1.00;;;;;;;;;;5046753;28;20059;-82
2023/10/22 04:20:50;;;;;;;6.43;1.10;;;;;;;;;;5045085;28;20044;-82
2023/10/22 04:23:16;;;;;;;4.18;0.90;;;;;;;;;;5053441;28;20048;-82
2023/10/22 04:25:45;;;;;;;4.43;1.20;;;;;;;;;;5064558;28;20083;-82
2023/10/22 04:28:13;;;;;;;6.15;1.10;;;;;;;;;;5053679;28;20116;-82
2023/10/22 04:30:45;;;;;;;7.10;1.20;;;;;;;;;;5061535;28;20068;-82
2023/10/22 04:33:12;;;;;;;5.70;1.10;;;;;;;;;;5055088;28;20100;-83
2023/10/22 04:35:38;;;;;;;5.85;1.20;;;;;;;;;;5036466;28;20479;-82
2023/10/22 04:38:04;;;;;;;3.60;1.00;;;;;;;;;;5043696;28;20052;-83
2023/10/22 04:40:33;;;;;;;6.10;1.10;;;;;;;;;;5050814;28;20048;-82
2023/10/22 04:42:59;;;;;;;4.57;1.05;;;;;;;;;;5028067;28;20135;-82
2023/10/22 04:45:26;;;;;;;3.67;1.10;;;;;;;;;;5051087;28;20042;-82
2023/10/22 04:47:52;;;;;;;4.90;1.13;;;;;;;;;;5052883;28;20041;-82
2023/10/22 04:50:18;;;;;;;4.22;1.10;;;;;;;;;;5044617;28;20517;-82
2023/10/22 04:52:44;;;;;;;5.43;1.27;;;;;;;;;;5025849;28;20056;-82
2023/10/22 04:55:13;;;;;;;4.18;1.13;;;;;;;;;;5059237;28;20049;-82
2023/10/22 04:57:40;;;;;;;5.43;1.20;;;;;;;;;;5062804;28;20449;-82
2023/10/22 05:00:07;;;;;;;3.45;1.00;;;;;;;;;;5049429;28;20111;-83
2023/10/22 05:02:33;;;;;;;5.60;1.20;;;;;;;;;;5047208;28;20120;-81
2023/10/22 05:05:00;;;;;;;5.30;1.20;;;;;;;;;;5050020;28;20040;-83
2023/10/22 05:07:26;;;;;;;3.85;1.17;;;;;;;;;;5063735;28;20528;-81
2023/10/22 05:09:52;;;;;;;4.60;1.40;;;;;;;;;;5058156;28;20052;-82
2023/10/22 05:12:18;;;;;;;4.78;1.30;;;;;;;;;;5056451;28;20071;-82
2023/10/22 05:14:44;;;;;;;5.75;1.30;;;;;;;;;;5059105;28;20046;-82
2023/10/22 05:17:10;;;;;;;5.20;1.17;;;;;;;;;;5044766;28;20045;-82
2023/10/22 05:19:36;;;;;;;4.07;1.05;;;;;;;;;;5035583;28;20053;-82
2023/10/22 05:22:05;;;;;;;2.78;1.00;;;;;;;;;;5056034;28;20449;-82
2023/10/22 05:24:32;;;;;;;4.45;1.33;;;;;;;;;;5055255;28;20060;-82
2023/10/22 05:26:58;;;;;;;2.70;1.00;;;;;;;;;;5025343;28;20049;-82
2023/10/22 05:29:25;;;;;;;3.15;1.10;;;;;;;;;;5041942;28;20042;-82
2023/10/22 05:31:51;;;;;;;3.72;1.13;;;;;;;;;;5048528;28;20468;-82
2023/10/22 05:34:17;;;;;;;3.75;1.20;;;;;;;;;;5056807;28;20075;-82
2023/10/22 05:36:43;;;;;;;3.42;1.20;;;;;;;;;;5056927;28;20033;-82
2023/10/22 05:39:09;;;;;;;4.72;1.27;;;;;;;;;;5042579;28;20048;-82
2023/10/22 05:41:35;;;;;;;3.42;1.30;;;;;;;;;;5042900;28;20053;-82
2023/10/22 05:44:02;;;;;;;2.30;1.10;;;;;;;;;;5057942;28;20045;-82
2023/10/22 05:46:29;;;;;;;4.18;1.33;;;;;;;;;;5043191;28;20049;-82
2023/10/22 05:48:55;;;;;;;3.78;1.23;;;;;;;;;;5059353;28;20129;-83
2023/10/22 05:51:21;;;;;;;3.30;1.40;;;;;;;;;;5062658;28;20073;-82
2023/10/22 05:53:47;;;;;;;3.47;1.10;;;;;;;;;;5025895;28;20045;-82
2023/10/22 05:56:14;;;;;;;2.35;1.00;;;;;;;;;;5034763;28;20072;-82
2023/10/22 05:58:40;;;;;;;3.05;1.00;;;;;;;;;;5043339;28;20105;-82
2023/10/22 06:01:06;;;;;;;2.38;1.00;;;;;;;;;;5058034;28;20044;-83
2023/10/22 06:03:32;;;;;;;4.03;0.90;;;;;;;;;;5046758;28;20067;-84
2023/10/22 06:05:59;;;;;;;3.47;0.85;;;;;;;;;;5043626;28;20049;-82
2023/10/22 06:08:25;;;;;;;3.08;0.75;;;;;;;;;;5044615;28;20038;-82
2023/10/22 06:10:51;;;;;;;2.30;0.90;;;;;;;;;;5055994;28;20041;-83
2023/10/22 06:13:17;;;;;;;2.13;0.60;;;;;;;;;;5040798;28;20560;-83
2023/10/22 06:15:44;;;;;;;1.90;0.70;;;;;;;;;;5037888;28;20500;-83
2023/10/22 06:18:11;;;;;;;2.45;0.60;;;;;;;;;;5051628;28;20041;-83
2023/10/22 06:20:37;;;;;;;3.53;0.73;;;;;;;;;;5052018;28;20041;-83
2023/10/22 06:23:04;;;;;;;1.73;0.60;;;;;;;;;;5038331;28;20037;-84
2023/10/22 06:25:31;;;;;;;2.15;0.80;;;;;;;;;;5057267;28;20045;-84
2023/10/22 06:27:58;;;;;;;2.97;0.80;;;;;;;;;;5043056;28;20046;-83
2023/10/22 06:30:25;;;;;;;4.03;1.00;;;;;;;;;;5042054;28;20359;-83
2023/10/22 06:32:55;;;;;;;2.58;0.95;;;;;;;;;;5042613;28;20443;-83
2023/10/22 06:35:21;;;;;;;3.28;1.08;;;;;;;;;;5060752;28;20478;-83
2023/10/22 06:37:48;;;;;;;2.92;1.00;;;;;;;;;;5042128;28;20056;-82
2023/10/22 06:40:14;;;;;;;5.00;1.25;;;;;;;;;;5043380;28;20081;-83
2023/10/22 06:42:40;;;;;;;4.53;1.70;;;;;;;;;;5053203;28;20119;-83
2023/10/22 06:45:07;;;;;;;6.00;1.90;;;;;;;;;;5063421;28;20075;-82
2023/10/22 06:47:39;;;;;;;7.15;2.25;;;;;;;;;;5062960;28;20053;-83
2023/10/22 06:50:06;;;;;;;6.63;2.00;;;;;;;;;;5061316;28;20052;-83
2023/10/22 06:52:32;;;;;;;7.07;2.60;;;;;;;;;;5061731;28;20129;-83
2023/10/22 06:55:00;;;;;;;8.18;2.40;;;;;;;;;;5055382;28;20145;-83
2023/10/22 06:57:26;;;;;;;8.25;2.60;;;;;;;;;;5049307;28;20121;-82
2023/10/22 06:59:53;;;;;;;8.45;2.58;;;;;;;;;;5041270;28;20560;-83
2023/10/22 07:02:19;;;;;;;10.90;2.67;;;;;;;;;;5048417;28;20049;-83
2023/10/22 07:04:47;;;;;;;7.88;2.80;;;;;;;;;;5066978;28;20059;-83
2023/10/22 07:07:13;;;;;;;7.75;3.10;;;;;;;;;;5063728;28;20538;-84
2023/10/22 07:09:39;;;;;;;8.45;3.10;;;;;;;;;;5053373;28;20041;-83
2023/10/22 07:12:06;;;;;;;7.00;2.83;;;;;;;;;;5058130;28;20045;-83
2023/10/22 07:14:32;;;;;;;10.18;3.30;;;;;;;;;;5047026;28;20051;-83
2023/10/22 07:16:58;;;;;;;7.65;3.28;;;;;;;;;;5055580;28;20037;-83
2023/10/22 07:19:24;;;;;;;8.73;4.20;;;;;;;;;;5027151;28;20057;-84
2023/10/22 07:21:50;;;;;;;14.73;4.53;;;;;;;;;;5035811;28;20129;-83
2023/10/22 07:24:16;;;;;;;9.55;3.83;;;;;;;;;;5045429;28;20061;-84
2023/10/22 07:26:42;;;;;;;12.88;4.15;;;;;;;;;;5044827;28;20064;-83
2023/10/22 07:29:08;;;;;;;12.18;4.30;;;;;;;;;;5045550;28;20049;-83
2023/10/22 07:31:34;;;;;;;11.82;3.15;;;;;;;;;;5048349;28;20083;-83
2023/10/22 07:34:01;;;;;;;13.55;4.30;;;;;;;;;;5064420;28;20072;-83
2023/10/22 07:36:27;;;;;;;10.05;3.70;;;;;;;;;;5062063;28;20053;-83
2023/10/22 07:38:53;;;;;;;10.15;3.58;;;;;;;;;;5049844;28;20068;-83
2023/10/22 07:41:19;;;;;;;13.07;3.97;;;;;;;;;;5045291;28;20056;-83
2023/10/22 07:43:46;;;;;;;10.82;3.80;;;;;;;;;;5063678;28;20058;-83
2023/10/22 07:46:14;;;;;;;11.18;3.72;;;;;;;;;;5063977;28;20056;-84
2023/10/22 07:48:40;;;;;;;8.63;3.70;;;;;;;;;;5065538;28;20049;-83
2023/10/22 07:51:16;;;;;;;10.32;4.05;;;;;;;;;;5056200;28;20048;-83
2023/10/22 07:53:43;;;;;;;9.13;3.75;;;;;;;;;;5053591;28;20255;-83
2023/10/22 07:56:09;;;;;;;9.60;4.15;;;;;;;;;;5064335;28;20106;-84
2023/10/22 07:58:36;;;;;;;11.82;4.35;;;;;;;;;;5076686;28;20087;-83
2023/10/22 08:01:03;;;;;;;12.52;4.05;;;;;;;;;;5060429;28;20437;-83
2023/10/22 08:03:29;;;;;;;12.35;4.20;;;;;;;;;;5062981;28;20052;-82
2023/10/22 08:05:55;;;;;;;8.05;3.50;;;;;;;;;;5029408;28;20131;-84
2023/10/22 08:08:22;;;;;;;10.88;3.72;;;;;;;;;;5074110;28;20097;-83
2023/10/22 08:10:48;;;;;;;10.20;3.97;;;;;;;;;;5047425;28;20072;-83
2023/10/22 08:13:14;;;;;;;10.05;3.55;;;;;;;;;;5065105;28;20061;-83
2023/10/22 08:15:40;;;;;;;10.20;3.58;;;;;;;;;;5062126;28;20604;-83
2023/10/22 08:18:06;;;;;;;8.55;3.80;;;;;;;;;;5064951;28;20075;-83
2023/10/22 08:20:33;;;;;;;8.93;3.50;;;;;;;;;;5059154;28;20399;-83
2023/10/22 08:22:59;;;;;;;10.82;3.80;;;;;;;;;;5062630;28;20033;-83
2023/10/22 08:25:25;;;;;;;8.85;3.42;;;;;;;;;;5044384;28;20041;-83
2023/10/22 08:27:51;;;;;;;9.10;3.50;;;;;;;;;;5048228;28;20503;-83
2023/10/22 08:30:19;;;;;;;7.88;3.63;;;;;;;;;;5066868;28;20101;-83
2023/10/22 08:32:48;;;;;;;8.90;3.97;;;;;;;;;;5050504;28;20063;-83
2023/10/22 08:35:14;;;;;;;10.80;3.55;;;;;;;;;;5055188;28;20056;-83
2023/10/22 08:37:44;;;;;;;8.60;3.60;;;;;;;;;;5069808;28;20040;-82
2023/10/22 08:40:10;;;;;;;12.02;3.97;;;;;;;;;;5041559;28;20044;-83
2023/10/22 08:42:37;;;;;;;11.10;3.75;;;;;;;;;;5053405;28;20110;-83
2023/10/22 08:45:07;;;;;;;11.10;3.75;;;;;;;;;;5053461;28;20042;-84
2023/10/22 08:47:35;;;;;;;10.35;3.40;;;;;;;;;;5064001;28;20044;-83
2023/10/22 08:50:02;;;;;;;10.15;3.40;;;;;;;;;;5064150;28;20041;-84
2023/10/22 08:52:28;;;;;;;10.57;3.65;;;;;;;;;;5059433;28;20049;-85
2023/10/22 08:54:54;;;;;;;11.45;3.45;;;;;;;;;;5052389;28;20107;-84
2023/10/22 08:57:22;;;;;;;9.80;3.47;;;;;;;;;;5056548;28;20098;-84
2023/10/22 08:59:48;;;;;;;8.82;3.80;;;;;;;;;;5059684;28;20138;-84
2023/10/22 09:02:16;;;;;;;8.02;3.58;;;;;;;;;;5015688;28;20041;-84
2023/10/22 09:04:42;;;;;;;10.85;3.40;;;;;;;;;;5042307;28;20046;-83
2023/10/22 09:07:08;;;;;;;8.77;3.40;;;;;;;;;;5049572;28;20048;-79
2023/10/22 09:09:36;;;;;;;8.55;3.25;;;;;;;;;;5061999;28;20044;-83
2023/10/22 09:12:03;;;;;;;9.55;3.47;;;;;;;;;;5040777;28;20056;-79
2023/10/22 09:14:30;;;;;;;8.38;4.05;;;;;;;;;;5055000;28;20053;-78
2023/10/22 09:16:56;;;;;;;10.68;3.42;;;;;;;;;;5028480;28;20394;-84
2023/10/22 09:19:41;;;;;;;9.15;3.03;;;;;;;;;;5048078;28;20049;-84
2023/10/22 09:22:21;;;;;;;9.65;2.90;;;;;;;;;;5061112;28;20052;-84
2023/10/22 09:24:52;;;;;;;7.78;2.85;;;;;;;;;;5055333;28;20049;-84
2023/10/22 09:27:29;;;;;;;10.07;3.03;;;;;;;;;;5058567;28;20052;-84
2023/10/22 09:30:00;;;;;;;6.30;2.90;;;;;;;;;;5042233;28;20064;-84
2023/10/22 09:32:26;;;;;;;8.45;3.10;;;;;;;;;;5061154;28;20099;-84
2023/10/22 09:34:52;;;;;;;9.57;2.97;;;;;;;;;;5061242;28;20398;-84
2023/10/22 09:37:18;;;;;;;8.05;3.10;;;;;;;;;;5060565;28;20049;-84
2023/10/22 09:39:45;;;;;;;9.80;3.22;;;;;;;;;;5041652;28;20060;-84
2023/10/22 09:42:18;;;;;;;9.98;3.38;;;;;;;;;;5025990;28;20124;-84
2023/10/22 09:44:44;;;;;;;8.45;3.30;;;;;;;;;;5042121;28;20067;-84
2023/10/22 09:47:14;;;;;;;9.20;3.40;;;;;;;;;;5024948;28;20091;-84
2023/10/22 09:49:43;;;;;;;7.05;2.85;;;;;;;;;;5040877;28;20037;-84
2023/10/22 09:52:10;;;;;;;8.57;3.00;;;;;;;;;;5059575;28;20052;-84
2023/10/22 09:54:38;;;;;;;8.27;2.70;;;;;;;;;;5047773;28;20056;-84
2023/10/22 09:57:14;;;;;;;7.10;2.55;;;;;;;;;;5056694;28;20072;-85
2023/10/22 09:59:47;;;;;;;7.88;2.75;;;;;;;;;;5060314;28;20143;-85
2023/10/22 10:02:17;;;;;;;8.15;2.75;;;;;;;;;;5059393;28;20072;-84
2023/10/22 10:04:43;;;;;;;8.52;2.97;;;;;;;;;;5060186;28;20060;-84
2023/10/22 10:07:09;;;;;;;7.25;2.92;;;;;;;;;;5074204;28;20128;-85
2023/10/22 10:09:36;;;;;;;10.23;2.63;;;;;;;;;;5079015;28;20070;-84
2023/10/22 10:12:04;;;;;;;8.55;2.72;;;;;;;;;;5078851;28;20048;-85
2023/10/22 10:14:37;;;;;;;9.55;2.45;;;;;;;;;;5045314;28;20040;-84
2023/10/22 10:17:03;;;;;;;7.00;2.45;;;;;;;;;;5041553;28;20073;-84
2023/10/22 10:19:30;;;;;;;6.65;2.40;;;;;;;;;;5039952;28;20045;-84
2023/10/22 10:21:56;;;;;;;6.80;2.28;;;;;;;;;;5055668;28;20045;-84
2023/10/22 10:24:25;;;;;;;7.38;2.08;;;;;;;;;;5060056;28;20351;-85
2023/10/22 10:26:55;;;;;;;7.85;2.35;;;;;;;;;;5058719;28;20182;-84
2023/10/22 10:29:22;;;;;;;8.95;2.20;;;;;;;;;;5058820;28;20099;-85
2023/10/22 10:31:48;;;;;;;5.53;1.70;;;;;;;;;;5050794;28;20052;-84
2023/10/22 10:34:22;;;;;;;5.88;1.92;;;;;;;;;;5057824;28;20060;-84
2023/10/22 10:36:52;;;;;;;5.10;1.38;;;;;;;;;;5063874;28;20048;-85
2023/10/22 10:39:37;;;;;;;8.45;1.63;;;;;;;;;;5076899;28;20051;-84
2023/10/22 10:42:03;;;;;;;7.00;1.60;;;;;;;;;;5045959;28;20135;-84
2023/10/22 10:44:30;;;;;;;5.03;1.20;;;;;;;;;;5042134;28;20049;-84
2023/10/22 10:47:15;;;;;;;7.13;1.73;;;;;;;;;;5040293;28;20084;-85
2023/10/22 10:50:03;;;;;;;7.55;1.67;;;;;;;;;;5038927;28;20227;-86
2023/10/22 10:52:31;;;;;;;6.25;1.90;;;;;;;;;;5040867;28;20121;-85
2023/10/22 10:55:16;;;;;;;8.70;1.70;;;;;;;;;;5039333;28;20062;-85
2023/10/22 10:57:46;;;;;;;7.10;2.05;;;;;;;;;;5042527;28;20057;-85
2023/10/22 11:00:19;;;;;;;7.18;2.13;;;;;;;;;;5060238;28;20045;-85
2023/10/22 11:02:46;;;;;;;6.40;1.52;;;;;;;;;;5061037;28;20040;-85
2023/10/22 11:05:13;;;;;;;5.32;1.48;;;;;;;;;;5042358;28;20114;-85
2023/10/22 11:07:40;;;;;;;5.30;1.30;;;;;;;;;;5063800;28;20048;-85
2023/10/22 11:10:16;;;;;;;7.80;1.63;;;;;;;;;;5061158;28;20041;-85
2023/10/22 11:12:44;;;;;;;5.85;1.55;;;;;;;;;;5025731;28;20059;-85
2023/10/22 11:15:10;;;;;;;8.00;1.40;;;;;;;;;;5056397;28;20072;-85
2023/10/22 11:17:45;;;;;;;5.80;1.55;;;;;;;;;;5033082;28;20487;-85
2023/10/22 11:20:13;;;;;;;5.15;1.52;;;;;;;;;;5041983;28;20057;-85
2023/10/22 11:22:39;;;;;;;5.45;1.50;;;;;;;;;;5057009;28;20122;-85
2023/10/22 11:25:09;;;;;;;7.63;1.60;;;;;;;;;;5048090;28;20041;-86
2023/10/22 11:27:37;;;;;;;5.45;1.67;;;;;;;;;;5052069;28;20072;-85
2023/10/22 11:30:03;;;;;;;5.70;2.15;;;;;;;;;;5052062;28;20053;-84
2023/10/22 11:32:29;;;;;;;8.77;2.50;;;;;;;;;;5051318;28;20057;-85
2023/10/22 11:35:04;;;;;;;8.10;2.90;;;;;;;;;;5060286;28;20045;-85
2023/10/22 11:37:42;;;;;;;6.82;1.65;;;;;;;;;;5061103;28;20045;-85
2023/10/22 11:40:29;;;;;;;6.28;1.40;;;;;;;;;;5060314;28;20053;-85
2023/10/22 11:42:57;;;;;;;6.40;1.20;;;;;;;;;;5048497;28;20114;-84
2023/10/22 11:45:23;;;;;;;7.15;1.30;;;;;;;;;;5038694;28;20064;-84
2023/10/22 11:47:49;;;;;;;5.75;1.30;;;;;;;;;;5058431;28;20435;-85
2023/10/22 11:50:16;;;;;;;5.15;1.38;;;;;;;;;;5031016;28;20167;-85
2023/10/22 11:52:51;;;;;;;4.60;1.38;;;;;;;;;;5054671;28;20057;-85
2023/10/22 11:55:18;;;;;;;6.95;1.13;;;;;;;;;;5041598;28;20132;-84
2023/10/22 11:57:46;;;;;;;7.32;1.20;;;;;;;;;;5045668;28;20042;-85
2023/10/22 12:00:12;;;;;;;4.03;1.20;;;;;;;;;;5057088;28;20045;-85
2023/10/22 12:02:39;;;;;;;5.53;1.30;;;;;;;;;;5060563;28;20053;-85
2023/10/22 12:05:05;;;;;;;6.65;1.55;;;;;;;;;;5059973;28;20060;-85
2023/10/22 12:07:32;;;;;;;6.75;1.65;;;;;;;;;;5059281;28;20077;-85
2023/10/22 12:09:58;;;;;;;6.38;1.60;;;;;;;;;;5067479;28;20046;-85
2023/10/22 12:12:24;;;;;;;5.07;1.60;;;;;;;;;;5040885;28;20050;-85
2023/10/22 12:14:50;;;;;;;5.63;1.60;;;;;;;;;;5039881;28;20041;-85
2023/10/22 12:17:20;;;;;;;5.57;1.52;;;;;;;;;;5052849;28;20052;-85
2023/10/22 12:19:46;;;;;;;5.95;1.40;;;;;;;;;;5049512;28;20384;-85
2023/10/22 12:22:12;;;;;;;5.38;1.30;;;;;;;;;;5050788;28;20044;-85
2023/10/22 12:24:38;;;;;;;5.82;1.52;;;;;;;;;;5058824;28;20055;-85
2023/10/22 12:27:04;;;;;;;7.15;1.80;;;;;;;;;;5050199;28;20109;-86
2023/10/22 12:29:31;;;;;;;6.10;1.60;;;;;;;;;;5045090;28;20126;-86
2023/10/22 12:31:57;;;;;;;6.78;1.70;;;;;;;;;;5054996;28;20060;-85
2023/10/22 12:34:23;;;;;;;7.43;2.13;;;;;;;;;;5021045;28;20103;-85
2023/10/22 12:36:49;;;;;;;6.10;1.65;;;;;;;;;;5038176;28;20376;-86
2023/10/22 12:39:15;;;;;;;6.80;2.15;;;;;;;;;;5053285;28;20110;-85
2023/10/22 12:41:41;;;;;;;5.60;1.67;;;;;;;;;;5041609;28;20056;-86
2023/10/22 12:44:07;;;;;;;6.22;2.03;;;;;;;;;;5065416;28;20055;-86
2023/10/22 12:46:33;;;;;;;5.72;1.98;;;;;;;;;;5064625;28;20049;-86
2023/10/22 12:48:59;;;;;;;7.07;1.67;;;;;;;;;;5058855;28;20048;-85
2023/10/22 12:51:25;;;;;;;5.80;1.30;;;;;;;;;;5060647;28;20040;-85
2023/10/22 12:53:52;;;;;;;6.50;1.58;;;;;;;;;;5058771;28;20056;-85
2023/10/22 12:56:18;;;;;;;4.65;1.20;;;;;;;;;;5040688;28;20105;-86
2023/10/22 12:58:46;;;;;;;7.03;1.50;;;;;;;;;;5057960;28;20055;-85
2023/10/22 13:01:12;;;;;;;3.45;1.25;;;;;;;;;;5053169;28;20566;-85
2023/10/22 13:03:38;;;;;;;6.90;1.30;;;;;;;;;;5047067;28;20049;-86
2023/10/22 13:06:08;;;;;;;7.57;1.40;;;;;;;;;;5025054;28;20120;-86
2023/10/22 13:08:34;;;;;;;4.47;1.30;;;;;;;;;;5051041;28;20057;-86
2023/10/22 13:11:00;;;;;;;5.32;1.30;;;;;;;;;;5058560;28;20191;-86
2023/10/22 13:13:27;;;;;;;4.32;1.00;;;;;;;;;;5050182;28;20041;-85
2023/10/22 13:15:54;;;;;;;4.15;1.00;;;;;;;;;;5068230;28;20073;-85
2023/10/22 13:18:20;;;;;;;6.28;1.27;;;;;;;;;;5079397;28;20052;-85
2023/10/22 13:20:46;;;;;;;3.95;1.20;;;;;;;;;;5063809;28;20370;-85
2023/10/22 13:23:13;;;;;;;4.35;1.30;;;;;;;;;;5056883;28;20048;-85
2023/10/22 13:25:39;;;;;;;4.90;1.30;;;;;;;;;;5057862;28;20593;-85
2023/10/22 13:28:06;;;;;;;4.00;1.10;;;;;;;;;;5023939;28;20052;-85
2023/10/22 13:30:32;;;;;;;5.88;1.13;;;;;;;;;;5058776;28;20052;-85
2023/10/22 13:32:59;;;;;;;4.55;1.17;;;;;;;;;;5041902;28;20043;-86
2023/10/22 13:35:25;;;;;;;5.35;1.20;;;;;;;;;;5057189;28;20537;-85
2023/10/22 13:37:51;;;;;;;5.57;1.27;;;;;;;;;;5033819;28;20048;-84
2023/10/22 13:40:18;;;;;;;5.82;1.40;;;;;;;;;;5073390;28;20478;-84
2023/10/22 13:42:44;;;;;;;4.25;1.00;;;;;;;;;;5078952;28;20037;-85
2023/10/22 13:45:11;;;;;;;4.53;0.77;;;;;;;;;;5048315;28;20052;-85
2023/10/22 13:47:37;;;;;;;5.05;1.20;;;;;;;;;;5038352;28;20046;-84
2023/10/22 13:50:08;;;;;;;6.22;1.42;;;;;;;;;;5038253;28;20058;-84
2023/10/22 13:52:35;;;;;;;3.15;1.10;;;;;;;;;;5038966;28;20049;-84
2023/10/22 13:55:01;;;;;;;3.30;1.15;;;;;;;;;;5037318;28;20057;-84
2023/10/22 13:57:27;;;;;;;5.20;1.70;;;;;;;;;;5053229;28;20138;-81
2023/10/22 13:59:53;;;;;;;3.45;1.00;;;;;;;;;;5057843;28;20055;-81
2023/10/22 14:02:20;;;;;;;10.05;1.83;;;;;;;;;;5057990;28;20094;-81
2023/10/22 14:04:46;;;;;;;4.88;1.50;;;;;;;;;;5040444;28;20045;-80
2023/10/22 14:07:16;;;;;;;4.82;1.55;;;;;;;;;;5058536;28;20064;-81
2023/10/22 14:09:42;;;;;;;4.60;1.00;;;;;;;;;;5053196;28;20136;-80
2023/10/22 14:12:08;;;;;;;5.95;1.10;;;;;;;;;;5048643;28;20037;-80
2023/10/22 14:14:37;;;;;;;5.60;0.90;;;;;;;;;;5052682;28;20174;-80
2023/10/22 14:17:03;;;;;;;3.30;0.90;;;;;;;;;;5061240;28;20037;-80
2023/10/22 14:19:30;;;;;;;6.80;1.50;;;;;;;;;;5054712;28;20139;-81
2023/10/22 14:21:56;;;;;;;5.80;1.15;;;;;;;;;;5040068;28;20048;-81
2023/10/22 14:24:23;;;;;;;3.55;0.80;;;;;;;;;;5059855;28;20055;-81
2023/10/22 14:26:49;;;;;;;3.80;1.10;;;;;;;;;;5072438;28;20103;-80
2023/10/22 14:29:15;;;;;;;6.72;1.20;;;;;;;;;;5029901;28;20080;-82
2023/10/22 14:31:41;;;;;;;4.95;1.75;;;;;;;;;;5058093;28;20102;-80
2023/10/22 14:34:07;;;;;;;3.80;1.08;;;;;;;;;;5062159;28;20056;-80
2023/10/22 14:36:36;;;;;;;4.18;1.02;;;;;;;;;;5062068;28;20158;-79
2023/10/22 14:39:02;;;;;;;4.90;1.00;;;;;;;;;;5044118;28;20055;-80
2023/10/22 14:41:28;;;;;;;3.45;0.93;;;;;;;;;;5047239;28;20053;-80